sensor_id;sensor_type;location;lat;lon;timestamp;temperature;humidity
40153;DHT22;26371;56.992;23.912;2023-02-18T00:01:17;3.90;99.90
40153;DHT22;26371;56.992;23.912;2023-02-18T00:03:47;4.00;99.90
40153;DHT22;26371;56.992;23.912;2023-02-18T00:06:17;4.00;99.90
40153;DHT22;26371;56.992;23.912;2023-02-18T00:08:55;3.90;99.90
40153;DHT22;26371;56.992;23.912;2023-02-18T00:11:29;3.90;99.90
40153;DHT22;26371;56.992;23.912;2023-02-18T00:14:02;3.90;99.90
40153;DHT22;26371;56.992;23.912;2023-02-18T00:16:37;3.90;99.90
40153;DHT22;26371;56.992;23.912;2023-02-18T00:19:30;4.00;99.90
40153;DHT22;26371;56.992;23.912;2023-02-18T00:22:18;4.00;99.90
40153;DHT22;26371;56.992;23.912;2023-02-18T00:25:16;4.10;99.90
40153;DHT22;26371;56.992;23.912;2023-02-18T00:28:29;4.10;99.90
40153;DHT22;26371;56.992;23.912;2023-02-18T00:31:06;4.20;99.90
40153;DHT22;26371;56.992;23.912;2023-02-18T00:33:40;4.20;99.90
40153;DHT22;26371;56.992;23.912;2023-02-18T00:36:16;4.30;99.90
40153;DHT22;26371;56.992;23.912;2023-02-18T00:39:00;4.30;99.90
40153;DHT22;26371;56.992;23.912;2023-02-18T00:42:08;4.30;99.90
40153;DHT22;26371;56.992;23.912;2023-02-18T00:44:44;4.40;99.90
40153;DHT22;26371;56.992;23.912;2023-02-18T00:47:28;4.40;99.90
40153;DHT22;26371;56.992;23.912;2023-02-18T00:50:00;4.40;99.90
40153;DHT22;26371;56.992;23.912;2023-02-18T00:52:33;4.40;99.90
40153;DHT22;26371;56.992;23.912;2023-02-18T00:55:03;4.40;99.90
40153;DHT22;26371;56.992;23.912;2023-02-18T00:57:33;4.40;99.90
40153;DHT22;26371;56.992;23.912;2023-02-18T01:00:15;4.40;99.90
40153;DHT22;26371;56.992;23.912;2023-02-18T01:02:44;4.40;99.90
40153;DHT22;26371;56.992;23.912;2023-02-18T01:05:23;4.50;99.90
40153;DHT22;26371;56.992;23.912;2023-02-18T01:07:57;4.50;99.90
40153;DHT22;26371;56.992;23.912;2023-02-18T01:10:33;4.50;99.90
40153;DHT22;26371;56.992;23.912;2023-02-18T01:13:07;4.50;99.90
40153;DHT22;26371;56.992;23.912;2023-02-18T01:15:41;4.50;99.90
40153;DHT22;26371;56.992;23.912;2023-02-18T01:18:10;4.50;99.90
40153;DHT22;26371;56.992;23.912;2023-02-18T01:20:44;4.50;99.90
40153;DHT22;26371;56.992;23.912;2023-02-18T01:23:16;4.50;99.90
40153;DHT22;26371;56.992;23.912;2023-02-18T01:25:52;4.50;99.90
40153;DHT22;26371;56.992;23.912;2023-02-18T01:28:23;4.60;99.90
40153;DHT22;26371;56.992;23.912;2023-02-18T01:30:55;4.50;99.90
40153;DHT22;26371;56.992;23.912;2023-02-18T01:33:31;4.50;99.90
40153;DHT22;26371;56.992;23.912;2023-02-18T01:36:04;4.60;99.90
40153;DHT22;26371;56.992;23.912;2023-02-18T01:38:40;4.50;99.90
40153;DHT22;26371;56.992;23.912;2023-02-18T01:41:10;4.50;99.90
40153;DHT22;26371;56.992;23.912;2023-02-18T01:43:44;4.60;99.90
40153;DHT22;26371;56.992;23.912;2023-02-18T01:46:17;4.60;99.90
40153;DHT22;26371;56.992;23.912;2023-02-18T01:48:56;4.60;99.90
40153;DHT22;26371;56.992;23.912;2023-02-18T01:51:28;4.60;99.90
40153;DHT22;26371;56.992;23.912;2023-02-18T01:54:03;4.60;99.90
40153;DHT22;26371;56.992;23.912;2023-02-18T01:56:39;4.60;99.90
40153;DHT22;26371;56.992;23.912;2023-02-18T01:59:15;4.60;99.90
40153;DHT22;26371;56.992;23.912;2023-02-18T02:01:49;4.60;99.90
40153;DHT22;26371;56.992;23.912;2023-02-18T02:04:19;4.60;99.90
40153;DHT22;26371;56.992;23.912;2023-02-18T02:06:51;4.60;99.90
40153;DHT22;26371;56.992;23.912;2023-02-18T02:09:23;4.60;99.90
40153;DHT22;26371;56.992;23.912;2023-02-18T02:12:10;4.60;99.90
40153;DHT22;26371;56.992;23.912;2023-02-18T02:14:59;4.60;99.90
40153;DHT22;26371;56.992;23.912;2023-02-18T02:17:44;4.60;99.90
40153;DHT22;26371;56.992;23.912;2023-02-18T02:20:50;4.60;99.90
40153;DHT22;26371;56.992;23.912;2023-02-18T02:23:50;4.60;99.90
40153;DHT22;26371;56.992;23.912;2023-02-18T02:26:47;4.60;99.90
40153;DHT22;26371;56.992;23.912;2023-02-18T02:33:22;4.60;99.90
40153;DHT22;26371;56.992;23.912;2023-02-18T02:36:05;4.60;99.90
40153;DHT22;26371;56.992;23.912;2023-02-18T02:38:58;4.50;99.90
40153;DHT22;26371;56.992;23.912;2023-02-18T02:41:42;4.50;99.90
40153;DHT22;26371;56.992;23.912;2023-02-18T02:44:26;4.60;99.90
40153;DHT22;26371;56.992;23.912;2023-02-18T02:47:04;4.50;99.90
40153;DHT22;26371;56.992;23.912;2023-02-18T02:49:46;4.50;99.90
40153;DHT22;26371;56.992;23.912;2023-02-18T02:52:23;4.50;99.90
40153;DHT22;26371;56.992;23.912;2023-02-18T02:54:57;4.40;99.90
40153;DHT22;26371;56.992;23.912;2023-02-18T02:57:46;4.40;99.90
40153;DHT22;26371;56.992;23.912;2023-02-18T03:00:33;4.50;99.90
40153;DHT22;26371;56.992;23.912;2023-02-18T03:03:28;4.40;99.90
40153;DHT22;26371;56.992;23.912;2023-02-18T03:06:24;4.40;99.90
40153;DHT22;26371;56.992;23.912;2023-02-18T03:09:07;4.40;99.90
40153;DHT22;26371;56.992;23.912;2023-02-18T03:11:55;4.40;99.90
40153;DHT22;26371;56.992;23.912;2023-02-18T03:14:39;4.40;99.90
40153;DHT22;26371;56.992;23.912;2023-02-18T03:17:33;4.40;99.90
40153;DHT22;26371;56.992;23.912;2023-02-18T03:20:28;4.40;99.90
40153;DHT22;26371;56.992;23.912;2023-02-18T03:23:26;4.40;99.90
40153;DHT22;26371;56.992;23.912;2023-02-18T03:26:24;4.40;99.90
40153;DHT22;26371;56.992;23.912;2023-02-18T03:29:35;4.40;99.90
40153;DHT22;26371;56.992;23.912;2023-02-18T03:32:05;4.30;99.90
40153;DHT22;26371;56.992;23.912;2023-02-18T03:34:38;4.40;99.90
40153;DHT22;26371;56.992;23.912;2023-02-18T03:37:13;4.40;99.90
40153;DHT22;26371;56.992;23.912;2023-02-18T03:39:48;4.40;99.90
40153;DHT22;26371;56.992;23.912;2023-02-18T03:42:25;4.40;99.90
40153;DHT22;26371;56.992;23.912;2023-02-18T03:44:55;4.40;99.90
40153;DHT22;26371;56.992;23.912;2023-02-18T03:47:25;4.30;99.90
40153;DHT22;26371;56.992;23.912;2023-02-18T03:49:58;4.40;99.90
40153;DHT22;26371;56.992;23.912;2023-02-18T03:52:27;4.40;99.90
40153;DHT22;26371;56.992;23.912;2023-02-18T03:54:56;4.30;99.90
40153;DHT22;26371;56.992;23.912;2023-02-18T03:57:26;4.30;99.90
40153;DHT22;26371;56.992;23.912;2023-02-18T04:00:04;4.30;99.90
40153;DHT22;26371;56.992;23.912;2023-02-18T04:02:39;4.30;99.90
40153;DHT22;26371;56.992;23.912;2023-02-18T04:05:10;4.30;99.90
40153;DHT22;26371;56.992;23.912;2023-02-18T04:07:39;4.30;99.90
40153;DHT22;26371;56.992;23.912;2023-02-18T04:10:24;4.30;99.90
40153;DHT22;26371;56.992;23.912;2023-02-18T04:12:56;4.20;99.90
40153;DHT22;26371;56.992;23.912;2023-02-18T04:15:28;4.20;99.90
40153;DHT22;26371;56.992;23.912;2023-02-18T04:18:06;4.30;99.90
40153;DHT22;26371;56.992;23.912;2023-02-18T04:20:51;4.30;99.90
40153;DHT22;26371;56.992;23.912;2023-02-18T04:23:20;4.20;99.90
40153;DHT22;26371;56.992;23.912;2023-02-18T04:25:55;4.20;99.90
40153;DHT22;26371;56.992;23.912;2023-02-18T04:28:47;4.20;99.90
40153;DHT22;26371;56.992;23.912;2023-02-18T04:31:21;4.20;99.90
40153;DHT22;26371;56.992;23.912;2023-02-18T04:33:53;4.20;99.90
40153;DHT22;26371;56.992;23.912;2023-02-18T04:36:24;4.20;99.90
40153;DHT22;26371;56.992;23.912;2023-02-18T04:39:01;4.20;99.90
40153;DHT22;26371;56.992;23.912;2023-02-18T04:41:35;4.20;99.90
40153;DHT22;26371;56.992;23.912;2023-02-18T04:44:09;4.20;99.90
40153;DHT22;26371;56.992;23.912;2023-02-18T04:46:40;4.20;99.90
40153;DHT22;26371;56.992;23.912;2023-02-18T04:49:09;4.30;99.90
40153;DHT22;26371;56.992;23.912;2023-02-18T04:51:39;4.20;99.90
40153;DHT22;26371;56.992;23.912;2023-02-18T04:54:10;4.30;99.90
40153;DHT22;26371;56.992;23.912;2023-02-18T04:56:38;4.20;99.90
40153;DHT22;26371;56.992;23.912;2023-02-18T04:59:14;4.20;99.90
40153;DHT22;26371;56.992;23.912;2023-02-18T05:01:43;4.20;99.90
40153;DHT22;26371;56.992;23.912;2023-02-18T05:04:11;4.20;99.90
40153;DHT22;26371;56.992;23.912;2023-02-18T05:06:44;4.20;99.90
40153;DHT22;26371;56.992;23.912;2023-02-18T05:09:14;4.20;99.90
40153;DHT22;26371;56.992;23.912;2023-02-18T05:12:00;4.10;99.90
40153;DHT22;26371;56.992;23.912;2023-02-18T05:14:33;4.10;99.90
40153;DHT22;26371;56.992;23.912;2023-02-18T05:17:02;4.10;99.90
40153;DHT22;26371;56.992;23.912;2023-02-18T05:19:33;4.10;99.90
40153;DHT22;26371;56.992;23.912;2023-02-18T05:22:03;4.20;99.90
40153;DHT22;26371;56.992;23.912;2023-02-18T05:24:34;4.10;99.90
40153;DHT22;26371;56.992;23.912;2023-02-18T05:27:09;4.10;99.90
40153;DHT22;26371;56.992;23.912;2023-02-18T05:29:42;4.10;99.90
40153;DHT22;26371;56.992;23.912;2023-02-18T05:32:10;4.10;99.90
40153;DHT22;26371;56.992;23.912;2023-02-18T05:34:42;4.10;99.90
40153;DHT22;26371;56.992;23.912;2023-02-18T05:37:12;4.10;99.90
40153;DHT22;26371;56.992;23.912;2023-02-18T05:39:43;4.20;99.90
40153;DHT22;26371;56.992;23.912;2023-02-18T05:42:12;4.10;99.90
40153;DHT22;26371;56.992;23.912;2023-02-18T05:44:52;4.10;99.90
40153;DHT22;26371;56.992;23.912;2023-02-18T05:47:25;4.10;99.90
40153;DHT22;26371;56.992;23.912;2023-02-18T05:49:54;4.10;99.90
40153;DHT22;26371;56.992;23.912;2023-02-18T05:52:24;4.10;99.90
40153;DHT22;26371;56.992;23.912;2023-02-18T05:54:56;4.00;99.90
40153;DHT22;26371;56.992;23.912;2023-02-18T05:57:29;4.00;99.90
40153;DHT22;26371;56.992;23.912;2023-02-18T06:00:08;4.00;99.90
40153;DHT22;26371;56.992;23.912;2023-02-18T06:02:40;4.10;99.90
40153;DHT22;26371;56.992;23.912;2023-02-18T06:05:09;4.00;99.90
40153;DHT22;26371;56.992;23.912;2023-02-18T06:07:38;4.00;99.90
40153;DHT22;26371;56.992;23.912;2023-02-18T06:10:10;4.00;99.90
40153;DHT22;26371;56.992;23.912;2023-02-18T06:12:42;4.00;99.90
40153;DHT22;26371;56.992;23.912;2023-02-18T06:15:15;4.00;99.90
40153;DHT22;26371;56.992;23.912;2023-02-18T06:17:50;4.00;99.90
40153;DHT22;26371;56.992;23.912;2023-02-18T06:20:22;3.90;99.90
40153;DHT22;26371;56.992;23.912;2023-02-18T06:23:08;4.00;99.90
40153;DHT22;26371;56.992;23.912;2023-02-18T06:25:40;4.00;99.90
40153;DHT22;26371;56.992;23.912;2023-02-18T06:28:12;4.00;99.90
40153;DHT22;26371;56.992;23.912;2023-02-18T06:30:51;4.00;99.90
40153;DHT22;26371;56.992;23.912;2023-02-18T06:33:30;4.00;99.90
40153;DHT22;26371;56.992;23.912;2023-02-18T06:36:07;3.90;99.90
40153;DHT22;26371;56.992;23.912;2023-02-18T06:38:41;3.90;99.90
40153;DHT22;26371;56.992;23.912;2023-02-18T06:41:19;3.90;99.90
40153;DHT22;26371;56.992;23.912;2023-02-18T06:43:50;3.90;99.90
40153;DHT22;26371;56.992;23.912;2023-02-18T06:46:23;3.90;99.90
40153;DHT22;26371;56.992;23.912;2023-02-18T06:48:57;3.90;99.90
40153;DHT22;26371;56.992;23.912;2023-02-18T06:51:25;3.80;99.90
40153;DHT22;26371;56.992;23.912;2023-02-18T06:53:59;3.80;99.90
40153;DHT22;26371;56.992;23.912;2023-02-18T06:56:31;3.90;99.90
40153;DHT22;26371;56.992;23.912;2023-02-18T06:59:02;3.80;99.90
40153;DHT22;26371;56.992;23.912;2023-02-18T07:01:35;3.80;99.90
40153;DHT22;26371;56.992;23.912;2023-02-18T07:04:11;3.80;99.90
40153;DHT22;26371;56.992;23.912;2023-02-18T07:06:41;3.80;99.90
40153;DHT22;26371;56.992;23.912;2023-02-18T07:09:26;3.80;99.90
40153;DHT22;26371;56.992;23.912;2023-02-18T07:11:57;3.80;99.90
40153;DHT22;26371;56.992;23.912;2023-02-18T07:14:26;3.70;99.90
40153;DHT22;26371;56.992;23.912;2023-02-18T07:16:59;3.70;99.90
40153;DHT22;26371;56.992;23.912;2023-02-18T07:19:28;3.70;99.90
40153;DHT22;26371;56.992;23.912;2023-02-18T07:22:02;3.60;99.90
40153;DHT22;26371;56.992;23.912;2023-02-18T07:24:33;3.70;99.90
40153;DHT22;26371;56.992;23.912;2023-02-18T07:27:04;3.60;99.90
40153;DHT22;26371;56.992;23.912;2023-02-18T07:29:42;3.60;99.90
40153;DHT22;26371;56.992;23.912;2023-02-18T07:32:17;3.60;99.90
40153;DHT22;26371;56.992;23.912;2023-02-18T07:34:52;3.60;99.90
40153;DHT22;26371;56.992;23.912;2023-02-18T07:37:30;3.70;99.90
40153;DHT22;26371;56.992;23.912;2023-02-18T07:40:02;3.70;99.90
40153;DHT22;26371;56.992;23.912;2023-02-18T07:42:32;3.70;99.90
40153;DHT22;26371;56.992;23.912;2023-02-18T07:45:07;3.70;99.90
40153;DHT22;26371;56.992;23.912;2023-02-18T07:47:44;3.80;99.90
40153;DHT22;26371;56.992;23.912;2023-02-18T07:50:20;3.80;99.90
40153;DHT22;26371;56.992;23.912;2023-02-18T07:53:03;3.80;99.90
40153;DHT22;26371;56.992;23.912;2023-02-18T07:55:51;3.80;99.90
40153;DHT22;26371;56.992;23.912;2023-02-18T07:58:25;3.80;99.90
40153;DHT22;26371;56.992;23.912;2023-02-18T08:01:04;3.90;99.90
40153;DHT22;26371;56.992;23.912;2023-02-18T08:04:04;3.90;99.90
40153;DHT22;26371;56.992;23.912;2023-02-18T08:06:44;4.00;99.90
40153;DHT22;26371;56.992;23.912;2023-02-18T08:09:19;4.10;99.90
40153;DHT22;26371;56.992;23.912;2023-02-18T08:11:54;4.10;99.90
40153;DHT22;26371;56.992;23.912;2023-02-18T08:14:27;4.20;99.90
40153;DHT22;26371;56.992;23.912;2023-02-18T08:17:02;4.20;99.90
40153;DHT22;26371;56.992;23.912;2023-02-18T08:19:47;4.30;99.90
40153;DHT22;26371;56.992;23.912;2023-02-18T08:22:27;4.30;99.90
40153;DHT22;26371;56.992;23.912;2023-02-18T08:24:58;4.30;99.90
40153;DHT22;26371;56.992;23.912;2023-02-18T08:27:36;4.30;99.90
40153;DHT22;26371;56.992;23.912;2023-02-18T08:30:08;4.30;99.90
40153;DHT22;26371;56.992;23.912;2023-02-18T08:32:47;4.40;99.90
40153;DHT22;26371;56.992;23.912;2023-02-18T08:35:20;4.40;99.90
40153;DHT22;26371;56.992;23.912;2023-02-18T08:37:59;4.30;99.90
40153;DHT22;26371;56.992;23.912;2023-02-18T08:40:31;4.40;99.90
40153;DHT22;26371;56.992;23.912;2023-02-18T08:43:07;4.40;99.90
40153;DHT22;26371;56.992;23.912;2023-02-18T08:45:44;4.40;99.90
40153;DHT22;26371;56.992;23.912;2023-02-18T08:48:17;4.40;99.90
40153;DHT22;26371;56.992;23.912;2023-02-18T08:50:52;4.30;99.90
40153;DHT22;26371;56.992;23.912;2023-02-18T08:53:37;4.20;99.90
40153;DHT22;26371;56.992;23.912;2023-02-18T08:56:12;4.10;99.90
40153;DHT22;26371;56.992;23.912;2023-02-18T08:58:45;3.90;99.90
40153;DHT22;26371;56.992;23.912;2023-02-18T09:01:22;3.80;99.90
40153;DHT22;26371;56.992;23.912;2023-02-18T09:03:54;3.70;99.90
40153;DHT22;26371;56.992;23.912;2023-02-18T09:06:35;3.60;99.90
40153;DHT22;26371;56.992;23.912;2023-02-18T09:09:07;3.40;99.90
40153;DHT22;26371;56.992;23.912;2023-02-18T09:11:37;3.30;99.90
40153;DHT22;26371;56.992;23.912;2023-02-18T09:14:23;3.20;99.90
40153;DHT22;26371;56.992;23.912;2023-02-18T09:16:53;3.20;99.90
40153;DHT22;26371;56.992;23.912;2023-02-18T09:19:29;3.20;99.90
40153;DHT22;26371;56.992;23.912;2023-02-18T09:22:06;3.20;99.90
40153;DHT22;26371;56.992;23.912;2023-02-18T09:25:00;3.10;99.90
40153;DHT22;26371;56.992;23.912;2023-02-18T09:27:30;3.10;99.90
40153;DHT22;26371;56.992;23.912;2023-02-18T09:30:02;3.10;99.90
40153;DHT22;26371;56.992;23.912;2023-02-18T09:32:34;3.00;99.90
40153;DHT22;26371;56.992;23.912;2023-02-18T09:35:04;3.00;99.90
40153;DHT22;26371;56.992;23.912;2023-02-18T09:37:34;3.00;99.90
40153;DHT22;26371;56.992;23.912;2023-02-18T09:40:24;3.00;99.90
40153;DHT22;26371;56.992;23.912;2023-02-18T09:42:57;3.00;99.90
40153;DHT22;26371;56.992;23.912;2023-02-18T09:45:31;2.90;99.90
40153;DHT22;26371;56.992;23.912;2023-02-18T09:48:10;2.90;99.90
40153;DHT22;26371;56.992;23.912;2023-02-18T09:50:53;2.90;99.90
40153;DHT22;26371;56.992;23.912;2023-02-18T09:53:27;2.90;99.90
40153;DHT22;26371;56.992;23.912;2023-02-18T09:55:57;2.90;99.90
40153;DHT22;26371;56.992;23.912;2023-02-18T09:58:35;2.90;99.90
40153;DHT22;26371;56.992;23.912;2023-02-18T10:01:14;2.90;99.90
40153;DHT22;26371;56.992;23.912;2023-02-18T10:03:45;2.90;99.90
40153;DHT22;26371;56.992;23.912;2023-02-18T10:06:30;3.00;99.90
40153;DHT22;26371;56.992;23.912;2023-02-18T10:09:31;3.00;99.90
40153;DHT22;26371;56.992;23.912;2023-02-18T10:12:12;3.00;99.90
40153;DHT22;26371;56.992;23.912;2023-02-18T10:14:50;3.00;99.90
40153;DHT22;26371;56.992;23.912;2023-02-18T10:20:22;3.00;99.90
40153;DHT22;26371;56.992;23.912;2023-02-18T10:22:57;3.10;99.90
40153;DHT22;26371;56.992;23.912;2023-02-18T10:25:36;3.10;99.90
40153;DHT22;26371;56.992;23.912;2023-02-18T10:28:21;3.20;99.90
40153;DHT22;26371;56.992;23.912;2023-02-18T10:30:58;3.20;99.90
40153;DHT22;26371;56.992;23.912;2023-02-18T10:33:44;3.20;99.90
40153;DHT22;26371;56.992;23.912;2023-02-18T10:36:33;3.20;99.90
40153;DHT22;26371;56.992;23.912;2023-02-18T10:42:34;3.10;99.90
40153;DHT22;26371;56.992;23.912;2023-02-18T10:45:26;3.20;99.90
40153;DHT22;26371;56.992;23.912;2023-02-18T10:48:14;3.20;99.90
40153;DHT22;26371;56.992;23.912;2023-02-18T10:50:52;3.20;99.90
40153;DHT22;26371;56.992;23.912;2023-02-18T10:53:38;3.10;99.90
40153;DHT22;26371;56.992;23.912;2023-02-18T10:56:36;3.10;99.90
40153;DHT22;26371;56.992;23.912;2023-02-18T10:59:19;3.10;99.90
40153;DHT22;26371;56.992;23.912;2023-02-18T11:01:59;3.00;99.90
40153;DHT22;26371;56.992;23.912;2023-02-18T11:04:36;3.00;99.90
40153;DHT22;26371;56.992;23.912;2023-02-18T11:07:15;3.00;99.90
40153;DHT22;26371;56.992;23.912;2023-02-18T11:09:53;2.90;99.90
40153;DHT22;26371;56.992;23.912;2023-02-18T11:12:29;2.90;99.90
40153;DHT22;26371;56.992;23.912;2023-02-18T11:15:22;2.90;99.90
40153;DHT22;26371;56.992;23.912;2023-02-18T11:18:12;2.90;99.90
40153;DHT22;26371;56.992;23.912;2023-02-18T11:20:55;2.90;99.90
40153;DHT22;26371;56.992;23.912;2023-02-18T11:24:05;2.90;99.90
40153;DHT22;26371;56.992;23.912;2023-02-18T11:29:59;2.80;99.90
40153;DHT22;26371;56.992;23.912;2023-02-18T11:32:45;2.80;99.90
40153;DHT22;26371;56.992;23.912;2023-02-18T11:35:27;2.70;99.90
40153;DHT22;26371;56.992;23.912;2023-02-18T11:38:20;2.70;99.90
40153;DHT22;26371;56.992;23.912;2023-02-18T11:43:41;2.50;99.90
40153;DHT22;26371;56.992;23.912;2023-02-18T11:46:14;2.60;99.90
40153;DHT22;26371;56.992;23.912;2023-02-18T11:48:51;2.60;99.90
40153;DHT22;26371;56.992;23.912;2023-02-18T11:51:24;2.60;99.90
40153;DHT22;26371;56.992;23.912;2023-02-18T11:54:00;2.60;99.90
40153;DHT22;26371;56.992;23.912;2023-02-18T11:56:32;2.50;99.90
40153;DHT22;26371;56.992;23.912;2023-02-18T11:59:04;2.50;99.90
40153;DHT22;26371;56.992;23.912;2023-02-18T12:01:42;2.50;99.90
40153;DHT22;26371;56.992;23.912;2023-02-18T12:04:15;2.50;99.90
40153;DHT22;26371;56.992;23.912;2023-02-18T12:06:51;2.50;99.90
40153;DHT22;26371;56.992;23.912;2023-02-18T12:09:34;2.50;99.90
40153;DHT22;26371;56.992;23.912;2023-02-18T12:12:12;2.50;99.90
40153;DHT22;26371;56.992;23.912;2023-02-18T12:14:43;2.50;99.90
40153;DHT22;26371;56.992;23.912;2023-02-18T12:17:37;2.50;99.90
40153;DHT22;26371;56.992;23.912;2023-02-18T12:20:30;2.50;99.90
40153;DHT22;26371;56.992;23.912;2023-02-18T12:23:16;2.50;99.90
40153;DHT22;26371;56.992;23.912;2023-02-18T12:25:56;2.50;99.90
40153;DHT22;26371;56.992;23.912;2023-02-18T12:28:48;2.50;99.90
40153;DHT22;26371;56.992;23.912;2023-02-18T12:31:50;2.50;99.90
40153;DHT22;26371;56.992;23.912;2023-02-18T12:34:35;2.50;99.90
40153;DHT22;26371;56.992;23.912;2023-02-18T12:37:34;2.40;99.90
40153;DHT22;26371;56.992;23.912;2023-02-18T12:43:13;2.40;99.90
40153;DHT22;26371;56.992;23.912;2023-02-18T12:46:01;2.40;99.90
40153;DHT22;26371;56.992;23.912;2023-02-18T12:49:06;2.40;99.90
40153;DHT22;26371;56.992;23.912;2023-02-18T12:51:59;2.40;99.90
40153;DHT22;26371;56.992;23.912;2023-02-18T12:54:42;2.40;99.90
40153;DHT22;26371;56.992;23.912;2023-02-18T12:58:09;2.40;99.90
40153;DHT22;26371;56.992;23.912;2023-02-18T13:01:02;2.40;99.90
40153;DHT22;26371;56.992;23.912;2023-02-18T13:07:11;2.40;99.90
40153;DHT22;26371;56.992;23.912;2023-02-18T13:09:57;2.40;99.90
40153;DHT22;26371;56.992;23.912;2023-02-18T13:12:36;2.40;99.90
40153;DHT22;26371;56.992;23.912;2023-02-18T13:15:16;2.40;99.90
40153;DHT22;26371;56.992;23.912;2023-02-18T13:17:53;2.50;99.90
40153;DHT22;26371;56.992;23.912;2023-02-18T13:20:34;2.50;99.90
40153;DHT22;26371;56.992;23.912;2023-02-18T13:23:13;2.50;99.90
40153;DHT22;26371;56.992;23.912;2023-02-18T13:25:50;2.50;99.90
40153;DHT22;26371;56.992;23.912;2023-02-18T13:28:36;2.40;99.90
40153;DHT22;26371;56.992;23.912;2023-02-18T13:31:26;2.50;99.90
40153;DHT22;26371;56.992;23.912;2023-02-18T13:34:11;2.50;99.90
40153;DHT22;26371;56.992;23.912;2023-02-18T13:37:21;2.40;99.90
40153;DHT22;26371;56.992;23.912;2023-02-18T13:40:16;2.40;99.90
40153;DHT22;26371;56.992;23.912;2023-02-18T13:42:53;2.40;99.90
40153;DHT22;26371;56.992;23.912;2023-02-18T13:45:36;2.40;99.90
40153;DHT22;26371;56.992;23.912;2023-02-18T13:48:25;2.40;99.90
40153;DHT22;26371;56.992;23.912;2023-02-18T13:51:05;2.40;99.90
40153;DHT22;26371;56.992;23.912;2023-02-18T13:53:41;2.40;99.90
40153;DHT22;26371;56.992;23.912;2023-02-18T13:56:29;2.40;99.90
40153;DHT22;26371;56.992;23.912;2023-02-18T13:59:17;2.40;99.90
40153;DHT22;26371;56.992;23.912;2023-02-18T14:04:53;2.40;99.90
40153;DHT22;26371;56.992;23.912;2023-02-18T14:07:49;2.40;99.90
40153;DHT22;26371;56.992;23.912;2023-02-18T14:10:43;2.40;99.90
40153;DHT22;26371;56.992;23.912;2023-02-18T14:13:47;2.30;99.90
40153;DHT22;26371;56.992;23.912;2023-02-18T14:23:57;2.30;99.90
40153;DHT22;26371;56.992;23.912;2023-02-18T14:27:39;2.30;99.90
40153;DHT22;26371;56.992;23.912;2023-02-18T14:30:53;2.30;99.90
40153;DHT22;26371;56.992;23.912;2023-02-18T14:36:45;2.30;99.90
40153;DHT22;26371;56.992;23.912;2023-02-18T14:39:32;2.30;99.90
40153;DHT22;26371;56.992;23.912;2023-02-18T14:42:15;2.30;99.90
40153;DHT22;26371;56.992;23.912;2023-02-18T14:45:09;2.30;99.90
40153;DHT22;26371;56.992;23.912;2023-02-18T14:48:00;2.30;99.90
40153;DHT22;26371;56.992;23.912;2023-02-18T14:50:43;2.30;99.90
40153;DHT22;26371;56.992;23.912;2023-02-18T14:53:19;2.40;99.90
40153;DHT22;26371;56.992;23.912;2023-02-18T14:55:56;2.40;99.90
40153;DHT22;26371;56.992;23.912;2023-02-18T14:58:32;2.40;99.90
40153;DHT22;26371;56.992;23.912;2023-02-18T15:04:11;2.40;99.90
40153;DHT22;26371;56.992;23.912;2023-02-18T15:06:57;2.50;99.90
40153;DHT22;26371;56.992;23.912;2023-02-18T15:09:59;2.50;99.90
40153;DHT22;26371;56.992;23.912;2023-02-18T15:12:30;2.50;99.90
40153;DHT22;26371;56.992;23.912;2023-02-18T15:15:06;2.40;99.90
40153;DHT22;26371;56.992;23.912;2023-02-18T15:17:44;2.50;99.90
40153;DHT22;26371;56.992;23.912;2023-02-18T15:20:16;2.40;99.90
40153;DHT22;26371;56.992;23.912;2023-02-18T15:22:58;2.40;99.90
40153;DHT22;26371;56.992;23.912;2023-02-18T15:25:44;2.40;99.90
40153;DHT22;26371;56.992;23.912;2023-02-18T15:28:28;2.40;99.90
40153;DHT22;26371;56.992;23.912;2023-02-18T15:31:10;2.40;99.90
40153;DHT22;26371;56.992;23.912;2023-02-18T15:33:46;2.40;99.90
40153;DHT22;26371;56.992;23.912;2023-02-18T15:36:15;2.40;99.90
40153;DHT22;26371;56.992;23.912;2023-02-18T15:38:44;2.40;99.90
40153;DHT22;26371;56.992;23.912;2023-02-18T15:41:18;2.40;99.90
40153;DHT22;26371;56.992;23.912;2023-02-18T15:44:00;2.40;99.90
40153;DHT22;26371;56.992;23.912;2023-02-18T15:46:34;2.40;99.90
40153;DHT22;26371;56.992;23.912;2023-02-18T15:49:20;2.40;99.90
40153;DHT22;26371;56.992;23.912;2023-02-18T15:51:58;2.40;99.90
40153;DHT22;26371;56.992;23.912;2023-02-18T15:54:29;2.40;99.90
40153;DHT22;26371;56.992;23.912;2023-02-18T15:57:18;2.30;99.90
40153;DHT22;26371;56.992;23.912;2023-02-18T15:59:56;2.40;99.90
40153;DHT22;26371;56.992;23.912;2023-02-18T16:02:48;2.40;99.90
40153;DHT22;26371;56.992;23.912;2023-02-18T16:05:17;2.40;99.90
40153;DHT22;26371;56.992;23.912;2023-02-18T16:07:59;2.30;99.90
40153;DHT22;26371;56.992;23.912;2023-02-18T16:10:43;2.30;99.90
40153;DHT22;26371;56.992;23.912;2023-02-18T16:13:16;2.30;99.90
40153;DHT22;26371;56.992;23.912;2023-02-18T16:15:49;2.30;99.90
40153;DHT22;26371;56.992;23.912;2023-02-18T16:18:27;2.30;99.90
40153;DHT22;26371;56.992;23.912;2023-02-18T16:21:00;2.30;99.90
40153;DHT22;26371;56.992;23.912;2023-02-18T16:23:42;2.30;99.90
40153;DHT22;26371;56.992;23.912;2023-02-18T16:26:22;2.30;99.90
40153;DHT22;26371;56.992;23.912;2023-02-18T16:29:11;2.30;99.90
40153;DHT22;26371;56.992;23.912;2023-02-18T16:31:55;2.30;99.90
40153;DHT22;26371;56.992;23.912;2023-02-18T16:34:31;2.30;99.90
40153;DHT22;26371;56.992;23.912;2023-02-18T16:37:05;2.30;99.90
40153;DHT22;26371;56.992;23.912;2023-02-18T16:39:53;2.30;99.90
40153;DHT22;26371;56.992;23.912;2023-02-18T16:42:24;2.30;99.90
40153;DHT22;26371;56.992;23.912;2023-02-18T16:44:54;2.30;99.90
40153;DHT22;26371;56.992;23.912;2023-02-18T16:47:32;2.30;99.90
40153;DHT22;26371;56.992;23.912;2023-02-18T16:50:02;2.30;99.90
40153;DHT22;26371;56.992;23.912;2023-02-18T16:52:31;2.30;99.90
40153;DHT22;26371;56.992;23.912;2023-02-18T16:54:59;2.30;99.90
40153;DHT22;26371;56.992;23.912;2023-02-18T16:57:31;2.30;99.90
40153;DHT22;26371;56.992;23.912;2023-02-18T17:00:09;2.30;99.90
40153;DHT22;26371;56.992;23.912;2023-02-18T17:02:43;2.20;99.90
40153;DHT22;26371;56.992;23.912;2023-02-18T17:05:19;2.20;99.90
40153;DHT22;26371;56.992;23.912;2023-02-18T17:07:53;2.30;99.90
40153;DHT22;26371;56.992;23.912;2023-02-18T17:10:30;2.20;99.90
40153;DHT22;26371;56.992;23.912;2023-02-18T17:13:01;2.20;99.90
40153;DHT22;26371;56.992;23.912;2023-02-18T17:15:34;2.20;99.90
40153;DHT22;26371;56.992;23.912;2023-02-18T17:18:10;2.20;99.90
40153;DHT22;26371;56.992;23.912;2023-02-18T17:20:39;2.10;99.90
40153;DHT22;26371;56.992;23.912;2023-02-18T17:23:13;2.10;99.90